Heber City, UT

8:34 AM MST on January 16, 2017 (GMT -0700)
Heber

Weather History for K36U - October, 2012

Change the Weather History Date:

Friday, October 19, 2012

  Actual Average (KPVU) Record (KPVU)
Temperature  
Mean Temperature 46 °F -  
Max Temperature 69 °F 59 °F 80 °F (2003)
Min Temperature 23 °F 34 °F 27 °F (1982)
Degree Days  
Heating Degree Days 19    
Moisture  
Dew Point 25 °F    
Average Humidity 58    
Maximum Humidity 93    
Minimum Humidity 17    
Precipitation  
Precipitation 0.00 in - - ()
Sea Level Pressure  
Sea Level Pressure 30.15 in    
Wind  
Wind Speed 2 mph (SSW)    
Max Wind Speed 14 mph    
Max Gust Speed 21 mph    
Visibility 10 miles    
Events      
Averages and records for this station are not official NWS values.
T = Trace of Precipitation, MM = Missing Value Source: NWS Daily Summary

Daily Weather History Graph

Daily Weather History Graph

Search for Another Location

Airport or City:

Trip Planner

Search our weather history database for the weather conditions in past years. The results will help you decide how hot, cold, wet, or windy it might be!

Date:

Astronomy

Oct. 19, 2012 Rise Set
Actual Time 7:41 AM MDT 6:38 PM MDT
Civil Twilight 7:13 AM MDT 7:06 PM MDT
Nautical Twilight 6:42 AM MDT 7:38 PM MDT
Astronomical Twilight 6:10 AM MDT 8:09 PM MDT
Moon 12:28 PM MDT (10/19) 10:20 PM MDT (10/19)
Length of Visible Light 11h 52m
Length of Day
10h 57m
Waxing Crescent, 24% of the Moon is Illuminated
Oct 19
Waxing Crescent
Oct 21
First Quarter
Oct 29
Full
Nov 6
Last Quarter
Nov 13
New

Hourly Weather History & Observations

Time (MDT) Temp. Windchill Dew Point Humidity Pressure Visibility Wind Dir Wind Speed Gust Speed Precip Events Conditions
12:35 AM 30.2 °F - 23.0 °F 75% 30.26 in 10.0 mi Calm Calm - N/A   Clear
12:55 AM 30.2 °F 26.7 °F 23.0 °F 75% 30.26 in 10.0 mi SE 3.5 mph - N/A   Clear
1:15 AM 30.2 °F - 23.0 °F 75% 30.26 in 10.0 mi Calm Calm - N/A   Clear
1:35 AM 32.0 °F - 23.0 °F 69% 30.26 in 10.0 mi Calm Calm - N/A   Clear
1:55 AM 30.2 °F - 21.2 °F 69% 30.27 in 10.0 mi Calm Calm - N/A   Clear
2:15 AM 28.4 °F 24.6 °F 23.0 °F 80% 30.27 in 10.0 mi SE 3.5 mph - N/A   Clear
2:35 AM 28.4 °F - 23.0 °F 80% 30.27 in 10.0 mi Calm Calm - N/A   Clear
2:55 AM 30.2 °F - 23.0 °F 75% 30.28 in 10.0 mi Calm Calm - N/A   Clear
3:15 AM 28.4 °F - 21.2 °F 74% 30.27 in 10.0 mi Calm Calm - N/A   Clear
3:35 AM 26.6 °F 22.6 °F 21.2 °F 80% 30.27 in 10.0 mi ESE 3.5 mph - N/A   Clear
3:55 AM 28.4 °F - 23.0 °F 80% 30.26 in 10.0 mi Calm Calm - N/A   Clear
4:15 AM 26.6 °F - 21.2 °F 80% 30.26 in 10.0 mi Calm Calm - N/A   Clear
4:35 AM 26.6 °F - 21.2 °F 80% 30.25 in 10.0 mi Calm Calm - N/A   Clear
4:55 AM 24.8 °F - 21.2 °F 86% 30.24 in 10.0 mi Calm Calm - N/A   Clear
5:15 AM 26.6 °F - 21.2 °F 80% 30.24 in 10.0 mi Calm Calm - N/A   Clear
5:35 AM 24.8 °F - 21.2 °F 86% 30.23 in 10.0 mi Calm Calm - N/A   Clear
5:55 AM 26.6 °F - 23.0 °F 86% 30.23 in 10.0 mi Calm Calm - N/A   Clear
6:15 AM 28.4 °F - 23.0 °F 80% 30.24 in 10.0 mi Calm Calm - N/A   Clear
6:35 AM 24.8 °F 20.5 °F 21.2 °F 86% 30.24 in 10.0 mi ESE 3.5 mph - N/A   Clear
6:55 AM 26.6 °F - 23.0 °F 86% 30.23 in 10.0 mi Calm Calm - N/A   Clear
7:15 AM 26.6 °F - 21.2 °F 80% 30.23 in 10.0 mi Calm Calm - N/A   Clear
7:35 AM 24.8 °F - 21.2 °F 86% 30.22 in 10.0 mi Calm Calm - N/A   Clear
7:55 AM 23.0 °F 18.4 °F 21.2 °F 93% 30.22 in 10.0 mi SE 3.5 mph - N/A   Clear
8:15 AM 26.6 °F - 23.0 °F 86% 30.22 in 7.0 mi Calm Calm - N/A   Clear
8:35 AM 28.4 °F - 23.0 °F 80% 30.23 in 10.0 mi Calm Calm - N/A   Clear
8:55 AM 30.2 °F - 24.8 °F 80% 30.23 in 10.0 mi Calm Calm - N/A   Clear
9:15 AM 32.0 °F - 26.6 °F 80% 30.23 in 10.0 mi Calm Calm - N/A   Clear
9:35 AM 33.8 °F - 28.4 °F 81% 30.22 in 10.0 mi Calm Calm - N/A   Clear
9:55 AM 35.6 °F - 28.4 °F 75% 30.22 in 10.0 mi Calm Calm - N/A   Clear
10:15 AM 37.4 °F - 28.4 °F 70% 30.22 in 10.0 mi Calm Calm - N/A   Clear
10:35 AM 41.0 °F - 28.4 °F 61% 30.22 in 10.0 mi Calm Calm - N/A   Clear
10:55 AM 42.8 °F - 28.4 °F 57% 30.20 in 10.0 mi Calm Calm - N/A   Clear
11:15 AM 46.4 °F - 28.4 °F 50% 30.19 in 10.0 mi Calm Calm - N/A   Clear
11:35 AM 48.2 °F - 26.6 °F 43% 30.19 in 10.0 mi Calm Calm - N/A   Clear
11:55 AM 51.8 °F - 26.6 °F 38% 30.18 in 10.0 mi Calm Calm - N/A   Clear
12:15 PM 53.6 °F - 28.4 °F 38% 30.17 in 10.0 mi Calm Calm - N/A   Clear
12:35 PM 55.4 °F - 28.4 °F 36% 30.16 in 10.0 mi NW 3.5 mph - N/A   Clear
12:55 PM 57.2 °F - 26.6 °F 31% 30.14 in 10.0 mi Calm Calm - N/A   Clear
1:15 PM 59.0 °F - 26.6 °F 29% 30.13 in 10.0 mi Calm Calm - N/A   Clear
1:35 PM 60.8 °F - 26.6 °F 27% 30.11 in 10.0 mi Calm Calm - N/A   Clear
1:55 PM 62.6 °F - 26.6 °F 26% 30.10 in 10.0 mi Calm Calm - N/A   Clear
2:15 PM 64.4 °F - 26.6 °F 24% 30.08 in 10.0 mi Calm Calm - N/A   Clear
2:35 PM 66.2 °F - 26.6 °F 23% 30.08 in 10.0 mi Calm Calm - N/A   Clear
3:15 PM 69.8 °F - 23.0 °F 17% 30.06 in 10.0 mi WSW 5.8 mph - N/A   Clear
3:35 PM 69.8 °F - 24.8 °F 18% 30.05 in 10.0 mi WSW 13.8 mph - N/A   Clear
3:55 PM 69.8 °F - 23.0 °F 17% 30.05 in 10.0 mi SW 10.4 mph 17.3 mph N/A   Clear
4:15 PM 68.0 °F - 24.8 °F 20% 30.05 in 10.0 mi SW 9.2 mph 17.3 mph N/A   Clear
4:35 PM 68.0 °F - 26.6 °F 21% 30.05 in 10.0 mi SW 11.5 mph - N/A   Clear
4:55 PM 66.2 °F - 23.0 °F 19% 30.05 in 10.0 mi SW 10.4 mph 20.7 mph N/A   Clear
5:15 PM 64.4 °F - 23.0 °F 21% 30.05 in 10.0 mi SW 9.2 mph 19.6 mph N/A   Clear
5:35 PM 64.4 °F - 23.0 °F 21% 30.04 in 10.0 mi WSW 13.8 mph - N/A   Clear
5:55 PM 64.4 °F - 24.8 °F 22% 30.04 in 10.0 mi WSW 12.7 mph 16.1 mph N/A   Clear
6:15 PM 62.6 °F - 26.6 °F 26% 30.04 in 10.0 mi SW 9.2 mph - N/A   Clear
6:35 PM 59.0 °F - 26.6 °F 29% 30.04 in 10.0 mi SSW 5.8 mph - N/A   Clear
6:55 PM 59.0 °F - 24.8 °F 27% 30.04 in 10.0 mi North 3.5 mph - N/A   Clear
7:15 PM 55.4 °F - 26.6 °F 33% 30.04 in 10.0 mi Calm Calm - N/A   Clear
7:35 PM 55.4 °F - 26.6 °F 33% 30.04 in 10.0 mi Calm Calm - N/A   Clear
7:55 PM 44.6 °F 43.1 °F 28.4 °F 53% 30.03 in 10.0 mi SE 3.5 mph - N/A   Clear
8:15 PM 46.4 °F 45.2 °F 26.6 °F 46% 30.03 in 10.0 mi SSE 3.5 mph - N/A   Clear
8:35 PM 44.6 °F 43.1 °F 26.6 °F 49% 30.03 in 10.0 mi South 3.5 mph - N/A   Clear
8:55 PM 41.0 °F - 28.4 °F 61% 30.03 in 10.0 mi Calm Calm - N/A   Clear
9:15 PM 42.8 °F 41.1 °F 28.4 °F 57% 30.03 in 10.0 mi SSW 3.5 mph - N/A   Clear
9:35 PM 41.0 °F 39.0 °F 28.4 °F 61% 30.03 in 10.0 mi South 3.5 mph - N/A   Clear
9:55 PM 37.4 °F - 28.4 °F 70% 30.03 in 10.0 mi Calm Calm - N/A   Clear
10:15 PM 41.0 °F - 28.4 °F 61% 30.03 in 10.0 mi Calm Calm - N/A   Clear
10:35 PM 35.6 °F - 28.4 °F 75% 30.03 in 10.0 mi Calm Calm - N/A   Clear
10:55 PM 35.6 °F - 28.4 °F 75% 30.03 in 10.0 mi Calm Calm - N/A   Clear
11:15 PM 33.8 °F - 28.4 °F 81% 30.02 in 10.0 mi Calm Calm - N/A   Clear
11:35 PM 33.8 °F - 28.4 °F 81% 30.02 in 10.0 mi Calm Calm - N/A   Clear
11:55 PM 33.8 °F - 28.4 °F 81% 30.02 in 10.0 mi Calm Calm - N/A   Clear